sensor_id;sensor_type;location;lat;lon;timestamp;temperature;humidity
42141;DHT22;27809;51.864;5.646;2022-08-19T00:01:31;17.60;99.90
42141;DHT22;27809;51.864;5.646;2022-08-19T00:03:58;17.50;99.90
42141;DHT22;27809;51.864;5.646;2022-08-19T00:06:23;17.50;99.90
42141;DHT22;27809;51.864;5.646;2022-08-19T00:08:49;17.40;99.90
42141;DHT22;27809;51.864;5.646;2022-08-19T00:11:16;17.40;99.90
42141;DHT22;27809;51.864;5.646;2022-08-19T00:13:42;17.40;99.90
42141;DHT22;27809;51.864;5.646;2022-08-19T00:16:07;17.30;99.90
42141;DHT22;27809;51.864;5.646;2022-08-19T00:18:33;17.30;99.90
42141;DHT22;27809;51.864;5.646;2022-08-19T00:20:59;17.30;99.90
42141;DHT22;27809;51.864;5.646;2022-08-19T00:23:25;17.30;99.90
42141;DHT22;27809;51.864;5.646;2022-08-19T00:25:51;17.30;99.90
42141;DHT22;27809;51.864;5.646;2022-08-19T00:28:17;17.20;99.90
42141;DHT22;27809;51.864;5.646;2022-08-19T00:30:43;17.30;99.90
42141;DHT22;27809;51.864;5.646;2022-08-19T00:33:09;17.30;99.90
42141;DHT22;27809;51.864;5.646;2022-08-19T00:35:34;17.30;99.90
42141;DHT22;27809;51.864;5.646;2022-08-19T00:38:00;17.20;99.90
42141;DHT22;27809;51.864;5.646;2022-08-19T00:40:26;17.20;99.90
42141;DHT22;27809;51.864;5.646;2022-08-19T00:42:51;17.20;99.90
42141;DHT22;27809;51.864;5.646;2022-08-19T00:45:21;17.30;99.90
42141;DHT22;27809;51.864;5.646;2022-08-19T00:47:47;17.10;99.90
42141;DHT22;27809;51.864;5.646;2022-08-19T00:50:15;17.10;99.90
42141;DHT22;27809;51.864;5.646;2022-08-19T00:52:44;17.10;99.90
42141;DHT22;27809;51.864;5.646;2022-08-19T00:55:14;17.10;99.90
42141;DHT22;27809;51.864;5.646;2022-08-19T00:57:44;17.10;99.90
42141;DHT22;27809;51.864;5.646;2022-08-19T01:00:13;17.10;99.90
42141;DHT22;27809;51.864;5.646;2022-08-19T01:02:40;17.00;99.90
42141;DHT22;27809;51.864;5.646;2022-08-19T01:05:09;16.90;99.90
42141;DHT22;27809;51.864;5.646;2022-08-19T01:07:36;16.90;99.90
42141;DHT22;27809;51.864;5.646;2022-08-19T01:10:04;16.90;99.90
42141;DHT22;27809;51.864;5.646;2022-08-19T01:12:30;17.00;99.90
42141;DHT22;27809;51.864;5.646;2022-08-19T01:14:57;16.90;99.90
42141;DHT22;27809;51.864;5.646;2022-08-19T01:17:22;16.70;99.90
42141;DHT22;27809;51.864;5.646;2022-08-19T01:19:48;16.70;99.90
42141;DHT22;27809;51.864;5.646;2022-08-19T01:25:06;16.60;99.90
42141;DHT22;27809;51.864;5.646;2022-08-19T01:27:40;16.60;99.90
42141;DHT22;27809;51.864;5.646;2022-08-19T01:30:07;16.90;99.90
42141;DHT22;27809;51.864;5.646;2022-08-19T01:32:33;16.80;99.90
42141;DHT22;27809;51.864;5.646;2022-08-19T01:34:59;16.90;99.90
42141;DHT22;27809;51.864;5.646;2022-08-19T01:37:27;16.90;99.90
42141;DHT22;27809;51.864;5.646;2022-08-19T01:39:52;16.90;99.90
42141;DHT22;27809;51.864;5.646;2022-08-19T01:42:18;16.80;99.90
42141;DHT22;27809;51.864;5.646;2022-08-19T01:44:45;16.70;99.90
42141;DHT22;27809;51.864;5.646;2022-08-19T01:47:10;16.70;99.90
42141;DHT22;27809;51.864;5.646;2022-08-19T01:49:36;16.70;99.90
42141;DHT22;27809;51.864;5.646;2022-08-19T01:52:03;16.70;99.90
42141;DHT22;27809;51.864;5.646;2022-08-19T01:54:29;16.80;99.90
42141;DHT22;27809;51.864;5.646;2022-08-19T01:57:05;16.70;99.90
42141;DHT22;27809;51.864;5.646;2022-08-19T01:59:32;16.60;99.90
42141;DHT22;27809;51.864;5.646;2022-08-19T02:01:57;16.40;99.90
42141;DHT22;27809;51.864;5.646;2022-08-19T02:04:23;16.40;99.90
42141;DHT22;27809;51.864;5.646;2022-08-19T02:06:50;16.60;99.90
42141;DHT22;27809;51.864;5.646;2022-08-19T02:09:16;16.60;99.90
42141;DHT22;27809;51.864;5.646;2022-08-19T02:11:42;16.40;99.90
42141;DHT22;27809;51.864;5.646;2022-08-19T02:14:08;16.40;99.90
42141;DHT22;27809;51.864;5.646;2022-08-19T02:16:35;16.30;99.90
42141;DHT22;27809;51.864;5.646;2022-08-19T02:19:00;16.30;99.90
42141;DHT22;27809;51.864;5.646;2022-08-19T02:21:28;16.30;99.90
42141;DHT22;27809;51.864;5.646;2022-08-19T02:23:54;16.40;99.90
42141;DHT22;27809;51.864;5.646;2022-08-19T02:26:20;16.30;99.90
42141;DHT22;27809;51.864;5.646;2022-08-19T02:28:46;16.30;99.90
42141;DHT22;27809;51.864;5.646;2022-08-19T02:31:16;16.30;99.90
42141;DHT22;27809;51.864;5.646;2022-08-19T02:33:43;16.20;99.90
42141;DHT22;27809;51.864;5.646;2022-08-19T02:36:11;16.30;99.90
42141;DHT22;27809;51.864;5.646;2022-08-19T02:38:36;16.30;99.90
42141;DHT22;27809;51.864;5.646;2022-08-19T02:41:13;16.40;99.90
42141;DHT22;27809;51.864;5.646;2022-08-19T02:43:39;16.40;99.90
42141;DHT22;27809;51.864;5.646;2022-08-19T02:46:26;16.40;99.90
42141;DHT22;27809;51.864;5.646;2022-08-19T02:48:54;16.10;99.90
42141;DHT22;27809;51.864;5.646;2022-08-19T02:51:28;16.20;99.90
42141;DHT22;27809;51.864;5.646;2022-08-19T02:53:54;15.90;99.90
42141;DHT22;27809;51.864;5.646;2022-08-19T02:56:20;16.00;99.90
42141;DHT22;27809;51.864;5.646;2022-08-19T02:58:47;16.10;99.90
42141;DHT22;27809;51.864;5.646;2022-08-19T03:01:23;16.40;99.90
42141;DHT22;27809;51.864;5.646;2022-08-19T03:03:50;16.50;99.90
42141;DHT22;27809;51.864;5.646;2022-08-19T03:06:16;16.30;99.90
42141;DHT22;27809;51.864;5.646;2022-08-19T03:08:43;16.30;99.90
42141;DHT22;27809;51.864;5.646;2022-08-19T03:11:27;16.30;99.90
42141;DHT22;27809;51.864;5.646;2022-08-19T03:13:54;16.20;99.90
42141;DHT22;27809;51.864;5.646;2022-08-19T03:16:22;16.10;99.90
42141;DHT22;27809;51.864;5.646;2022-08-19T03:18:48;16.10;99.90
42141;DHT22;27809;51.864;5.646;2022-08-19T03:21:19;15.70;99.90
42141;DHT22;27809;51.864;5.646;2022-08-19T03:23:45;15.60;99.90
42141;DHT22;27809;51.864;5.646;2022-08-19T03:26:11;15.60;99.90
42141;DHT22;27809;51.864;5.646;2022-08-19T03:28:37;15.60;99.90
42141;DHT22;27809;51.864;5.646;2022-08-19T03:31:12;15.70;99.90
42141;DHT22;27809;51.864;5.646;2022-08-19T03:33:39;15.80;99.90
42141;DHT22;27809;51.864;5.646;2022-08-19T03:36:07;16.00;99.90
42141;DHT22;27809;51.864;5.646;2022-08-19T03:38:38;15.90;99.90
42141;DHT22;27809;51.864;5.646;2022-08-19T03:41:10;15.80;99.90
42141;DHT22;27809;51.864;5.646;2022-08-19T03:43:37;15.60;99.90
42141;DHT22;27809;51.864;5.646;2022-08-19T03:46:09;15.70;99.90
42141;DHT22;27809;51.864;5.646;2022-08-19T03:48:37;15.60;99.90
42141;DHT22;27809;51.864;5.646;2022-08-19T03:51:04;15.70;99.90
42141;DHT22;27809;51.864;5.646;2022-08-19T03:53:31;15.70;99.90
42141;DHT22;27809;51.864;5.646;2022-08-19T03:55:57;15.70;99.90
42141;DHT22;27809;51.864;5.646;2022-08-19T03:58:26;15.70;99.90
42141;DHT22;27809;51.864;5.646;2022-08-19T04:00:52;15.50;99.90
42141;DHT22;27809;51.864;5.646;2022-08-19T04:03:18;15.50;99.90
42141;DHT22;27809;51.864;5.646;2022-08-19T04:05:44;15.40;99.90
42141;DHT22;27809;51.864;5.646;2022-08-19T04:08:10;15.50;99.90
42141;DHT22;27809;51.864;5.646;2022-08-19T04:10:37;15.50;99.90
42141;DHT22;27809;51.864;5.646;2022-08-19T04:13:04;15.60;99.90
42141;DHT22;27809;51.864;5.646;2022-08-19T04:15:31;15.70;99.90
42141;DHT22;27809;51.864;5.646;2022-08-19T04:18:01;15.60;99.90
42141;DHT22;27809;51.864;5.646;2022-08-19T04:20:27;15.50;99.90
42141;DHT22;27809;51.864;5.646;2022-08-19T04:22:52;15.40;99.90
42141;DHT22;27809;51.864;5.646;2022-08-19T04:25:18;15.40;99.90
42141;DHT22;27809;51.864;5.646;2022-08-19T04:27:43;15.50;99.90
42141;DHT22;27809;51.864;5.646;2022-08-19T04:30:12;15.50;99.90
42141;DHT22;27809;51.864;5.646;2022-08-19T04:32:38;15.30;99.90
42141;DHT22;27809;51.864;5.646;2022-08-19T04:35:04;15.40;99.90
42141;DHT22;27809;51.864;5.646;2022-08-19T04:37:31;15.30;99.90
42141;DHT22;27809;51.864;5.646;2022-08-19T04:39:58;15.30;99.90
42141;DHT22;27809;51.864;5.646;2022-08-19T04:42:43;15.50;99.90
42141;DHT22;27809;51.864;5.646;2022-08-19T04:45:14;15.50;99.90
42141;DHT22;27809;51.864;5.646;2022-08-19T04:47:41;15.50;99.90
42141;DHT22;27809;51.864;5.646;2022-08-19T04:50:08;15.50;99.90
42141;DHT22;27809;51.864;5.646;2022-08-19T04:52:37;15.50;99.90
42141;DHT22;27809;51.864;5.646;2022-08-19T04:55:08;15.50;99.90
42141;DHT22;27809;51.864;5.646;2022-08-19T04:57:33;15.40;99.90
42141;DHT22;27809;51.864;5.646;2022-08-19T04:59:59;15.50;99.90
42141;DHT22;27809;51.864;5.646;2022-08-19T05:02:24;15.40;99.90
42141;DHT22;27809;51.864;5.646;2022-08-19T05:04:51;15.50;99.90
42141;DHT22;27809;51.864;5.646;2022-08-19T05:07:21;16.50;99.90
42141;DHT22;27809;51.864;5.646;2022-08-19T05:09:46;16.50;99.90
42141;DHT22;27809;51.864;5.646;2022-08-19T05:12:12;16.50;99.90
42141;DHT22;27809;51.864;5.646;2022-08-19T05:14:37;20.40;99.90
42141;DHT22;27809;51.864;5.646;2022-08-19T05:17:03;21.50;99.90
42141;DHT22;27809;51.864;5.646;2022-08-19T05:19:28;20.50;98.10
42141;DHT22;27809;51.864;5.646;2022-08-19T05:22:12;20.20;99.90
42141;DHT22;27809;51.864;5.646;2022-08-19T05:24:57;21.40;99.90
42141;DHT22;27809;51.864;5.646;2022-08-19T05:27:22;21.60;99.50
42141;DHT22;27809;51.864;5.646;2022-08-19T05:29:48;22.10;97.20
42141;DHT22;27809;51.864;5.646;2022-08-19T05:32:13;22.00;98.10
42141;DHT22;27809;51.864;5.646;2022-08-19T05:34:39;21.80;98.60
42141;DHT22;27809;51.864;5.646;2022-08-19T05:37:05;21.40;99.90
42141;DHT22;27809;51.864;5.646;2022-08-19T05:39:33;21.50;99.60
42141;DHT22;27809;51.864;5.646;2022-08-19T05:42:03;21.50;99.20
42141;DHT22;27809;51.864;5.646;2022-08-19T05:44:32;21.30;99.90
42141;DHT22;27809;51.864;5.646;2022-08-19T05:47:00;21.20;99.90
42141;DHT22;27809;51.864;5.646;2022-08-19T05:49:26;21.70;99.90
42141;DHT22;27809;51.864;5.646;2022-08-19T05:51:53;21.20;99.90
42141;DHT22;27809;51.864;5.646;2022-08-19T05:54:20;21.10;99.90
42141;DHT22;27809;51.864;5.646;2022-08-19T05:56:45;21.00;99.90
42141;DHT22;27809;51.864;5.646;2022-08-19T05:59:14;21.50;99.90
42141;DHT22;27809;51.864;5.646;2022-08-19T06:01:43;21.70;99.90
42141;DHT22;27809;51.864;5.646;2022-08-19T06:04:09;21.70;99.80
42141;DHT22;27809;51.864;5.646;2022-08-19T06:06:35;21.60;99.90
42141;DHT22;27809;51.864;5.646;2022-08-19T06:09:03;21.60;99.90
42141;DHT22;27809;51.864;5.646;2022-08-19T06:14:05;21.60;99.90
42141;DHT22;27809;51.864;5.646;2022-08-19T06:16:34;21.40;99.90
42141;DHT22;27809;51.864;5.646;2022-08-19T06:19:02;21.10;99.90
42141;DHT22;27809;51.864;5.646;2022-08-19T06:21:28;21.20;99.90
42141;DHT22;27809;51.864;5.646;2022-08-19T06:23:55;21.00;99.90
42141;DHT22;27809;51.864;5.646;2022-08-19T06:26:21;20.90;99.90
42141;DHT22;27809;51.864;5.646;2022-08-19T06:28:48;21.10;99.90
42141;DHT22;27809;51.864;5.646;2022-08-19T06:31:20;21.30;99.90
42141;DHT22;27809;51.864;5.646;2022-08-19T06:33:47;20.70;99.90
42141;DHT22;27809;51.864;5.646;2022-08-19T06:38:52;21.50;99.90
42141;DHT22;27809;51.864;5.646;2022-08-19T06:41:18;21.80;99.90
42141;DHT22;27809;51.864;5.646;2022-08-19T06:43:43;22.20;99.90
42141;DHT22;27809;51.864;5.646;2022-08-19T06:46:11;22.10;99.90
42141;DHT22;27809;51.864;5.646;2022-08-19T06:48:37;22.20;99.90
42141;DHT22;27809;51.864;5.646;2022-08-19T06:51:03;21.80;99.90
42141;DHT22;27809;51.864;5.646;2022-08-19T06:53:31;21.50;99.90
42141;DHT22;27809;51.864;5.646;2022-08-19T06:55:56;21.90;99.90
42141;DHT22;27809;51.864;5.646;2022-08-19T06:58:26;22.10;99.90
42141;DHT22;27809;51.864;5.646;2022-08-19T07:00:51;22.30;99.90
42141;DHT22;27809;51.864;5.646;2022-08-19T07:03:17;21.90;99.90
42141;DHT22;27809;51.864;5.646;2022-08-19T07:05:43;22.30;99.90
42141;DHT22;27809;51.864;5.646;2022-08-19T07:08:09;21.60;99.90
42141;DHT22;27809;51.864;5.646;2022-08-19T07:10:34;21.90;99.90
42141;DHT22;27809;51.864;5.646;2022-08-19T07:13:02;22.50;99.90
42141;DHT22;27809;51.864;5.646;2022-08-19T07:15:28;21.70;99.90
42141;DHT22;27809;51.864;5.646;2022-08-19T07:17:54;22.20;99.90
42141;DHT22;27809;51.864;5.646;2022-08-19T07:20:19;22.20;99.90
42141;DHT22;27809;51.864;5.646;2022-08-19T07:22:45;22.30;99.90
42141;DHT22;27809;51.864;5.646;2022-08-19T07:25:11;22.40;99.90
42141;DHT22;27809;51.864;5.646;2022-08-19T07:27:38;22.60;99.90
42141;DHT22;27809;51.864;5.646;2022-08-19T07:30:04;22.50;99.90
42141;DHT22;27809;51.864;5.646;2022-08-19T07:32:30;22.10;99.90
42141;DHT22;27809;51.864;5.646;2022-08-19T07:34:56;22.50;99.90
42141;DHT22;27809;51.864;5.646;2022-08-19T07:37:22;22.20;99.90
42141;DHT22;27809;51.864;5.646;2022-08-19T07:39:48;22.00;99.90
42141;DHT22;27809;51.864;5.646;2022-08-19T07:42:14;21.90;99.90
42141;DHT22;27809;51.864;5.646;2022-08-19T07:44:41;21.50;99.90
42141;DHT22;27809;51.864;5.646;2022-08-19T07:47:06;21.90;99.90
42141;DHT22;27809;51.864;5.646;2022-08-19T07:49:32;22.10;99.90
42141;DHT22;27809;51.864;5.646;2022-08-19T07:52:01;22.00;99.90
42141;DHT22;27809;51.864;5.646;2022-08-19T07:54:30;22.00;99.90
42141;DHT22;27809;51.864;5.646;2022-08-19T07:56:57;22.50;99.90
42141;DHT22;27809;51.864;5.646;2022-08-19T07:59:23;22.50;99.90
42141;DHT22;27809;51.864;5.646;2022-08-19T08:01:50;22.30;99.90
42141;DHT22;27809;51.864;5.646;2022-08-19T08:04:17;22.40;99.90
42141;DHT22;27809;51.864;5.646;2022-08-19T08:07:02;22.80;99.90
42141;DHT22;27809;51.864;5.646;2022-08-19T08:09:46;22.20;99.90
42141;DHT22;27809;51.864;5.646;2022-08-19T08:12:22;22.20;99.90
42141;DHT22;27809;51.864;5.646;2022-08-19T08:14:53;21.80;99.90
42141;DHT22;27809;51.864;5.646;2022-08-19T08:17:21;22.30;99.90
42141;DHT22;27809;51.864;5.646;2022-08-19T08:19:48;22.50;99.90
42141;DHT22;27809;51.864;5.646;2022-08-19T08:22:17;22.60;99.90
42141;DHT22;27809;51.864;5.646;2022-08-19T08:25:05;22.50;99.90
42141;DHT22;27809;51.864;5.646;2022-08-19T08:27:34;23.40;99.90
42141;DHT22;27809;51.864;5.646;2022-08-19T08:30:00;22.80;99.90
42141;DHT22;27809;51.864;5.646;2022-08-19T08:32:26;22.90;99.90
42141;DHT22;27809;51.864;5.646;2022-08-19T08:34:52;22.70;99.90
42141;DHT22;27809;51.864;5.646;2022-08-19T08:37:17;23.50;99.80
42141;DHT22;27809;51.864;5.646;2022-08-19T08:39:43;22.90;99.90
42141;DHT22;27809;51.864;5.646;2022-08-19T08:42:27;22.60;99.90
42141;DHT22;27809;51.864;5.646;2022-08-19T08:44:59;22.30;99.90
42141;DHT22;27809;51.864;5.646;2022-08-19T08:47:30;22.30;99.90
42141;DHT22;27809;51.864;5.646;2022-08-19T08:50:18;22.50;99.90
42141;DHT22;27809;51.864;5.646;2022-08-19T08:52:47;22.50;99.90
42141;DHT22;27809;51.864;5.646;2022-08-19T08:55:16;21.90;99.90
42141;DHT22;27809;51.864;5.646;2022-08-19T09:00:27;22.10;99.90
42141;DHT22;27809;51.864;5.646;2022-08-19T09:02:55;22.20;99.90
42141;DHT22;27809;51.864;5.646;2022-08-19T09:05:23;21.80;99.90
42141;DHT22;27809;51.864;5.646;2022-08-19T09:08:10;21.70;99.90
42141;DHT22;27809;51.864;5.646;2022-08-19T09:10:44;22.00;99.90
42141;DHT22;27809;51.864;5.646;2022-08-19T09:13:41;22.70;99.90
42141;DHT22;27809;51.864;5.646;2022-08-19T09:16:14;22.30;99.90
42141;DHT22;27809;51.864;5.646;2022-08-19T09:18:45;22.00;99.90
42141;DHT22;27809;51.864;5.646;2022-08-19T09:21:13;21.80;99.90
42141;DHT22;27809;51.864;5.646;2022-08-19T09:23:39;22.50;99.90
42141;DHT22;27809;51.864;5.646;2022-08-19T09:26:09;22.20;99.90
42141;DHT22;27809;51.864;5.646;2022-08-19T09:28:39;21.70;99.90
42141;DHT22;27809;51.864;5.646;2022-08-19T09:31:11;21.60;99.90
42141;DHT22;27809;51.864;5.646;2022-08-19T09:33:37;22.30;99.90
42141;DHT22;27809;51.864;5.646;2022-08-19T09:36:08;22.70;99.50
42141;DHT22;27809;51.864;5.646;2022-08-19T09:38:35;22.00;99.90
42141;DHT22;27809;51.864;5.646;2022-08-19T09:41:09;22.20;99.90
42141;DHT22;27809;51.864;5.646;2022-08-19T09:43:40;22.10;99.90
42141;DHT22;27809;51.864;5.646;2022-08-19T09:46:06;23.60;97.90
42141;DHT22;27809;51.864;5.646;2022-08-19T09:48:33;23.40;94.70
42141;DHT22;27809;51.864;5.646;2022-08-19T09:51:03;23.90;94.20
42141;DHT22;27809;51.864;5.646;2022-08-19T09:53:29;24.60;92.20
42141;DHT22;27809;51.864;5.646;2022-08-19T09:55:55;24.50;90.70
42141;DHT22;27809;51.864;5.646;2022-08-19T09:58:21;24.10;89.30
42141;DHT22;27809;51.864;5.646;2022-08-19T10:00:49;23.90;89.60
42141;DHT22;27809;51.864;5.646;2022-08-19T10:03:15;24.40;91.20
42141;DHT22;27809;51.864;5.646;2022-08-19T10:05:40;24.20;89.90
42141;DHT22;27809;51.864;5.646;2022-08-19T10:08:17;24.30;91.10
42141;DHT22;27809;51.864;5.646;2022-08-19T10:10:44;24.30;87.80
42141;DHT22;27809;51.864;5.646;2022-08-19T10:13:10;23.80;91.10
42141;DHT22;27809;51.864;5.646;2022-08-19T10:15:36;24.10;90.90
42141;DHT22;27809;51.864;5.646;2022-08-19T10:18:05;23.90;91.20
42141;DHT22;27809;51.864;5.646;2022-08-19T10:20:31;23.60;90.80
42141;DHT22;27809;51.864;5.646;2022-08-19T10:22:57;23.90;90.70
42141;DHT22;27809;51.864;5.646;2022-08-19T10:25:24;24.00;90.90
42141;DHT22;27809;51.864;5.646;2022-08-19T10:27:51;24.10;91.60
42141;DHT22;27809;51.864;5.646;2022-08-19T10:30:17;24.10;91.70
42141;DHT22;27809;51.864;5.646;2022-08-19T10:32:42;23.90;92.40
42141;DHT22;27809;51.864;5.646;2022-08-19T10:35:08;24.00;91.40
42141;DHT22;27809;51.864;5.646;2022-08-19T10:37:36;23.80;91.70
42141;DHT22;27809;51.864;5.646;2022-08-19T10:40:04;24.20;91.20
42141;DHT22;27809;51.864;5.646;2022-08-19T10:42:31;24.10;92.40
42141;DHT22;27809;51.864;5.646;2022-08-19T10:44:56;24.10;92.50
42141;DHT22;27809;51.864;5.646;2022-08-19T10:47:22;24.20;91.30
42141;DHT22;27809;51.864;5.646;2022-08-19T10:49:49;23.90;92.60
42141;DHT22;27809;51.864;5.646;2022-08-19T10:52:33;23.80;92.60
42141;DHT22;27809;51.864;5.646;2022-08-19T10:55:02;24.10;92.20
42141;DHT22;27809;51.864;5.646;2022-08-19T10:57:47;24.00;92.00
42141;DHT22;27809;51.864;5.646;2022-08-19T11:00:13;24.30;91.10
42141;DHT22;27809;51.864;5.646;2022-08-19T11:02:38;24.00;92.10
42141;DHT22;27809;51.864;5.646;2022-08-19T11:05:04;24.10;91.80
42141;DHT22;27809;51.864;5.646;2022-08-19T11:07:32;24.10;91.60
42141;DHT22;27809;51.864;5.646;2022-08-19T11:09:58;23.70;93.90
42141;DHT22;27809;51.864;5.646;2022-08-19T11:12:23;23.70;93.20
42141;DHT22;27809;51.864;5.646;2022-08-19T11:14:50;23.80;93.90
42141;DHT22;27809;51.864;5.646;2022-08-19T11:17:15;23.90;92.70
42141;DHT22;27809;51.864;5.646;2022-08-19T11:19:41;23.60;94.00
42141;DHT22;27809;51.864;5.646;2022-08-19T11:22:08;23.80;93.30
42141;DHT22;27809;51.864;5.646;2022-08-19T11:24:35;23.60;94.30
42141;DHT22;27809;51.864;5.646;2022-08-19T11:27:07;24.00;93.10
42141;DHT22;27809;51.864;5.646;2022-08-19T11:29:35;24.10;92.70
42141;DHT22;27809;51.864;5.646;2022-08-19T11:32:08;23.90;93.50
42141;DHT22;27809;51.864;5.646;2022-08-19T11:34:34;24.00;92.70
42141;DHT22;27809;51.864;5.646;2022-08-19T11:37:02;23.80;93.20
42141;DHT22;27809;51.864;5.646;2022-08-19T11:39:30;24.10;92.60
42141;DHT22;27809;51.864;5.646;2022-08-19T11:42:00;24.20;92.80
42141;DHT22;27809;51.864;5.646;2022-08-19T11:44:27;24.30;93.10
42141;DHT22;27809;51.864;5.646;2022-08-19T11:46:56;24.50;92.00
42141;DHT22;27809;51.864;5.646;2022-08-19T11:49:21;24.40;92.30
42141;DHT22;27809;51.864;5.646;2022-08-19T11:51:48;24.60;91.50
42141;DHT22;27809;51.864;5.646;2022-08-19T11:54:15;24.50;91.10
42141;DHT22;27809;51.864;5.646;2022-08-19T11:56:42;24.20;92.10
42141;DHT22;27809;51.864;5.646;2022-08-19T11:59:08;24.30;91.90
42141;DHT22;27809;51.864;5.646;2022-08-19T12:01:34;24.40;91.30
42141;DHT22;27809;51.864;5.646;2022-08-19T12:04:00;24.60;91.10
42141;DHT22;27809;51.864;5.646;2022-08-19T12:06:28;24.90;90.50
42141;DHT22;27809;51.864;5.646;2022-08-19T12:08:59;24.80;89.70
42141;DHT22;27809;51.864;5.646;2022-08-19T12:11:26;24.70;90.30
42141;DHT22;27809;51.864;5.646;2022-08-19T12:13:52;24.70;90.50
42141;DHT22;27809;51.864;5.646;2022-08-19T12:16:22;24.70;90.10
42141;DHT22;27809;51.864;5.646;2022-08-19T12:18:49;25.00;88.80
42141;DHT22;27809;51.864;5.646;2022-08-19T12:21:18;25.20;89.20
42141;DHT22;27809;51.864;5.646;2022-08-19T12:23:46;25.20;87.10
42141;DHT22;27809;51.864;5.646;2022-08-19T12:26:12;24.70;89.00
42141;DHT22;27809;51.864;5.646;2022-08-19T12:28:38;24.80;88.90
42141;DHT22;27809;51.864;5.646;2022-08-19T12:31:04;24.80;89.20
42141;DHT22;27809;51.864;5.646;2022-08-19T12:33:29;24.80;87.60
42141;DHT22;27809;51.864;5.646;2022-08-19T12:36:01;24.90;90.30
42141;DHT22;27809;51.864;5.646;2022-08-19T12:38:27;25.00;88.80
42141;DHT22;27809;51.864;5.646;2022-08-19T12:40:53;25.00;88.50
42141;DHT22;27809;51.864;5.646;2022-08-19T12:43:19;25.50;86.80
42141;DHT22;27809;51.864;5.646;2022-08-19T12:45:45;25.60;83.00
42141;DHT22;27809;51.864;5.646;2022-08-19T12:48:11;25.40;83.90
42141;DHT22;27809;51.864;5.646;2022-08-19T12:50:43;25.40;84.70
42141;DHT22;27809;51.864;5.646;2022-08-19T12:53:11;25.30;86.20
42141;DHT22;27809;51.864;5.646;2022-08-19T12:55:37;25.70;85.20
42141;DHT22;27809;51.864;5.646;2022-08-19T12:58:02;25.60;82.10
42141;DHT22;27809;51.864;5.646;2022-08-19T13:00:29;25.40;83.90
42141;DHT22;27809;51.864;5.646;2022-08-19T13:02:55;25.50;82.40
42141;DHT22;27809;51.864;5.646;2022-08-19T13:05:24;25.60;83.70
42141;DHT22;27809;51.864;5.646;2022-08-19T13:07:51;25.40;82.50
42141;DHT22;27809;51.864;5.646;2022-08-19T13:10:20;25.40;84.20
42141;DHT22;27809;51.864;5.646;2022-08-19T13:12:48;25.20;85.70
42141;DHT22;27809;51.864;5.646;2022-08-19T13:15:14;25.20;84.60
42141;DHT22;27809;51.864;5.646;2022-08-19T13:17:43;25.30;85.30
42141;DHT22;27809;51.864;5.646;2022-08-19T13:20:10;25.30;85.30
42141;DHT22;27809;51.864;5.646;2022-08-19T13:22:36;25.30;86.90
42141;DHT22;27809;51.864;5.646;2022-08-19T13:25:04;25.20;85.60
42141;DHT22;27809;51.864;5.646;2022-08-19T13:27:30;25.10;85.90
42141;DHT22;27809;51.864;5.646;2022-08-19T13:29:56;25.00;88.10
42141;DHT22;27809;51.864;5.646;2022-08-19T13:32:39;25.10;86.30
42141;DHT22;27809;51.864;5.646;2022-08-19T13:35:23;24.90;87.40
42141;DHT22;27809;51.864;5.646;2022-08-19T13:37:49;25.10;87.70
42141;DHT22;27809;51.864;5.646;2022-08-19T13:40:17;25.00;89.00
42141;DHT22;27809;51.864;5.646;2022-08-19T13:42:45;25.00;88.40
42141;DHT22;27809;51.864;5.646;2022-08-19T13:45:15;25.00;87.30
42141;DHT22;27809;51.864;5.646;2022-08-19T13:47:41;25.00;87.90
42141;DHT22;27809;51.864;5.646;2022-08-19T13:50:11;25.10;87.30
42141;DHT22;27809;51.864;5.646;2022-08-19T13:52:38;25.00;87.80
42141;DHT22;27809;51.864;5.646;2022-08-19T13:55:05;25.00;88.00
42141;DHT22;27809;51.864;5.646;2022-08-19T13:57:31;24.80;88.80
42141;DHT22;27809;51.864;5.646;2022-08-19T13:59:59;24.50;90.60
42141;DHT22;27809;51.864;5.646;2022-08-19T14:02:26;24.60;90.40
42141;DHT22;27809;51.864;5.646;2022-08-19T14:04:52;24.50;89.80
42141;DHT22;27809;51.864;5.646;2022-08-19T14:07:17;24.40;90.70
42141;DHT22;27809;51.864;5.646;2022-08-19T14:09:43;24.50;90.40
42141;DHT22;27809;51.864;5.646;2022-08-19T14:12:08;24.30;90.60
42141;DHT22;27809;51.864;5.646;2022-08-19T14:14:38;24.40;90.50
42141;DHT22;27809;51.864;5.646;2022-08-19T14:17:07;24.50;90.70
42141;DHT22;27809;51.864;5.646;2022-08-19T14:19:34;24.50;90.80
42141;DHT22;27809;51.864;5.646;2022-08-19T14:22:00;24.40;91.10
42141;DHT22;27809;51.864;5.646;2022-08-19T14:24:26;24.60;91.20
42141;DHT22;27809;51.864;5.646;2022-08-19T14:26:52;24.70;91.20
42141;DHT22;27809;51.864;5.646;2022-08-19T14:29:17;24.70;91.30
42141;DHT22;27809;51.864;5.646;2022-08-19T14:31:43;24.80;91.10
42141;DHT22;27809;51.864;5.646;2022-08-19T14:34:09;24.70;90.90
42141;DHT22;27809;51.864;5.646;2022-08-19T14:36:36;24.60;91.20
42141;DHT22;27809;51.864;5.646;2022-08-19T14:39:02;24.90;91.00
42141;DHT22;27809;51.864;5.646;2022-08-19T14:41:27;24.70;91.00
42141;DHT22;27809;51.864;5.646;2022-08-19T14:43:54;24.60;90.60
42141;DHT22;27809;51.864;5.646;2022-08-19T14:46:23;24.60;90.50
42141;DHT22;27809;51.864;5.646;2022-08-19T14:48:49;24.60;90.70
42141;DHT22;27809;51.864;5.646;2022-08-19T14:51:15;24.60;90.50
42141;DHT22;27809;51.864;5.646;2022-08-19T14:53:41;24.60;90.50
42141;DHT22;27809;51.864;5.646;2022-08-19T14:56:09;24.90;89.90
42141;DHT22;27809;51.864;5.646;2022-08-19T14:58:34;25.40;87.40
42141;DHT22;27809;51.864;5.646;2022-08-19T15:01:00;25.30;86.80
42141;DHT22;27809;51.864;5.646;2022-08-19T15:03:27;25.30;86.80
42141;DHT22;27809;51.864;5.646;2022-08-19T15:05:54;25.30;86.50
42141;DHT22;27809;51.864;5.646;2022-08-19T15:08:21;24.70;90.60
42141;DHT22;27809;51.864;5.646;2022-08-19T15:10:47;24.80;90.20
42141;DHT22;27809;51.864;5.646;2022-08-19T15:13:13;24.40;91.10
42141;DHT22;27809;51.864;5.646;2022-08-19T15:15:39;24.10;92.10
42141;DHT22;27809;51.864;5.646;2022-08-19T15:18:04;24.40;91.60
42141;DHT22;27809;51.864;5.646;2022-08-19T15:20:30;23.90;93.40
42141;DHT22;27809;51.864;5.646;2022-08-19T15:22:56;24.20;92.70
42141;DHT22;27809;51.864;5.646;2022-08-19T15:25:23;24.50;91.90
42141;DHT22;27809;51.864;5.646;2022-08-19T15:27:49;24.30;93.20
42141;DHT22;27809;51.864;5.646;2022-08-19T15:30:24;24.80;91.60
42141;DHT22;27809;51.864;5.646;2022-08-19T15:32:51;24.80;92.40
42141;DHT22;27809;51.864;5.646;2022-08-19T15:35:17;24.80;93.10
42141;DHT22;27809;51.864;5.646;2022-08-19T15:37:44;25.00;91.50
42141;DHT22;27809;51.864;5.646;2022-08-19T15:40:10;25.30;90.40
42141;DHT22;27809;51.864;5.646;2022-08-19T15:42:37;24.90;91.70
42141;DHT22;27809;51.864;5.646;2022-08-19T15:45:05;24.70;92.00